Terminal Aerodrome Forecast
Issued by NWS Wilmington, NC

Home | Current Version | Previous Version | Text Only | Print | Product List | Glossary On
Versions: 1 2 3 4 5 6 7 8 9 10 11 12 13 14 15 16
019
FTUS42 KILM 031742
TAFMYR
TAF
KMYR 031742Z 0318/0418 02009KT P6SM FEW120 OVC200
     FM040600 03006KT P6SM OVC100
     FM041400 04012KT P6SM OVC050=

USA.gov is the U.S. government's official web portal to all federal, state and local government web resources and services.